9A3XK-13 Weather Reports


time (UTC)temp
C
wind
direction
speed
KPH
gust
KPH
rain 1hr
cm
rain 24hr
cm
rain mn
cm
humidity
%
barometer
mb
20260906011016 21 338 1.6 4.8 0.00 0.00 0.00 62 1022.7
20260906010516 21 315 1.6 6.4 0.00 0.00 0.00 62 1022.7
20260906010016 21 338 1.6 6.4 0.00 0.00 0.00 62 1022.6
20260906005516 21 338 1.6 6.4 0.00 0.00 0.00 62 1022.6
20260906005016 21 338 3.2 6.4 0.00 0.00 0.00 62 1022.6
20260906004516 21 338 1.6 6.4 0.00 0.00 0.00 62 1022.6
20260906004016 21 338 1.6 6.4 0.00 0.00 0.00 62 1022.4
20260906003516 21 338 1.6 6.4 0.00 0.00 0.00 61 1022.4
20260906003016 21 338 3.2 6.4 0.00 0.00 0.00 61 1022.4
20260906002517 21 338 1.6 6.4 0.00 0.00 0.00 61 1022.5
20260906002016 21 338 1.6 4.8 0.00 0.00 0.00 61 1022.4
20260906001516 21 0.0 4.8 0.00 0.00 0.00 61 1022.4
20260906001016 21 315 1.6 6.4 0.00 0.00 0.00 60 1022.4
20260906000516 21 338 1.6 6.4 0.00 0.00 0.00 60 1022.4
20260906000018 21 338 1.6 6.4 0.00 0.00 0.00 60 1022.3
20260905235516 21 315 1.6 4.8 0.00 0.00 0.00 60 1022.3
20260905235016 21 0.0 4.8 0.00 0.00 0.00 60 1022.2
20260905234516 21 293 1.6 4.8 0.00 0.00 0.00 59 1022.3
20260905234016 21 248 1.6 4.8 0.00 0.00 0.00 59 1022.4
20260905233516 21 270 3.2 6.4 0.00 0.00 0.00 59 1022.4
20260905233016 21 248 3.2 6.4 0.00 0.00 0.00 59 1022.4
20260905232516 21 293 3.2 6.4 0.00 0.00 0.00 59 1022.3
20260905232016 21 293 3.2 6.4 0.00 0.00 0.00 59 1022.2
20260905231516 21 293 1.6 4.8 0.00 0.00 0.00 59 1022.1
20260905231016 22 293 3.2 6.4 0.00 0.00 0.00 59 1022.1
20260905230516 22 293 3.2 6.4 0.00 0.00 0.00 58 1022.1
20260905230016 22 315 1.6 6.4 0.00 0.00 0.00 58 1022.1
20260905225516 22 315 1.6 4.8 0.00 0.00 0.00 58 1022.1
20260905225016 22 338 1.6 4.8 0.00 0.00 0.00 57 1022.1
20260905224516 22 315 1.6 4.8 0.00 0.00 0.00 57 1022.0
20260905224016 22 315 3.2 6.4 0.00 0.00 0.00 57 1022.1
20260905223516 22 315 1.6 6.4 0.00 0.00 0.00 56 1022.0
20260905223016 22 315 1.6 4.8 0.00 0.00 0.00 56 1021.9
20260905222516 22 338 1.6 4.8 0.00 0.00 0.00 55 1021.9
20260905222015 22 0 1.6 4.8 0.00 0.00 0.00 55 1021.9
20260905221516 22 315 1.6 4.8 0.00 0.00 0.00 55 1021.8
20260905221016 22 315 1.6 4.8 0.00 0.00 0.00 54 1021.8
20260905220516 22 0.0 3.2 0.00 0.00 0.00 54 1021.7
20260905220016 22 315 1.6 3.2 0.00 0.00 0.00 54 1021.8
20260905215515 22 315 1.6 4.8 0.00 0.00 0.00 54 1021.9
20260905215015 22 0.0 3.2 0.00 0.00 0.00 53 1021.8
20260905214515 22 0.0 3.2 0.00 0.00 0.00 53 1021.7
20260905214015 23 0 1.6 3.2 0.00 0.00 0.00 53 1021.6
20260905213515 23 0.0 1.6 0.00 0.00 0.00 52 1021.6
20260905213015 23 0.0 3.2 0.00 0.00 0.00 52 1021.5
20260905212515 23 0.0 1.6 0.00 0.00 0.00 52 1021.4
20260905212015 23 0.0 0.0 0.00 0.00 0.00 52 1021.2
20260905211515 23 0.0 0.0 0.00 0.00 0.00 51 1021.3
20260905211015 23 0.0 1.6 0.00 0.00 0.00 51 1021.2
20260905210515 23 0.0 1.6 0.00 0.00 0.00 51 1021.2
20260905210015 23 0.0 3.2 0.00 0.00 0.00 51 1021.1
20260905205515 23 0 1.6 4.8 0.00 0.00 0.00 51 1021.1
20260905205017 23 0 1.6 4.8 0.00 0.00 0.00 51 1021.0
20260905204517 23 23 3.2 8.0 0.00 0.00 0.00 51 1020.9
20260905204015 23 23 1.6 6.4 0.00 0.00 0.00 51 1020.8
20260905203517 23 23 1.6 6.4 0.00 0.00 0.00 51 1020.8
20260905203018 23 45 1.6 3.2 0.00 0.00 0.00 51 1020.7
20260905202517 23 45 1.6 4.8 0.00 0.00 0.00 51 1020.6
20260905202015 23 45 1.6 4.8 0.00 0.00 0.00 51 1020.6
20260905201517 23 45 1.6 4.8 0.00 0.00 0.00 51 1020.6
20260905201017 23 45 1.6 3.2 0.00 0.00 0.00 50 1020.6
20260905200517 23 45 1.6 4.8 0.00 0.00 0.00 50 1020.6
20260905200017 23 68 1.6 6.4 0.00 0.00 0.00 50 1020.5
20260905195516 23 45 1.6 6.4 0.00 0.00 0.00 50 1020.4
20260905195017 23 45 1.6 4.8 0.00 0.00 0.00 50 1020.4
20260905194517 23 45 3.2 8.0 0.00 0.00 0.00 50 1020.3
20260905194017 23 45 1.6 6.4 0.00 0.00 0.00 50 1020.3
20260905193517 23 45 3.2 8.0 0.00 0.00 0.00 49 1020.2
20260905193017 23 45 3.2 8.0 0.00 0.00 0.00 49 1020.2
20260905192517 23 45 3.2 6.4 0.00 0.00 0.00 49 1020.1
20260905192017 23 45 3.2 6.4 0.00 0.00 0.00 48 1020.0
20260905191517 23 45 3.2 9.7 0.00 0.00 0.00 48 1019.9
20260905191018 24 45 4.8 11.3 0.00 0.00 0.00 48 1019.8
20260905190517 24 23 3.2 8.0 0.00 0.00 0.00 48 1019.6
20260905190017 24 45 4.8 11.3 0.00 0.00 0.00 47 1019.6
20260905185516 24 45 4.8 9.7 0.00 0.00 0.00 47 1019.5
20260905185017 24 45 3.2 9.7 0.00 0.00 0.00 47 1019.4
20260905184517 24 45 4.8 9.7 0.00 0.00 0.00 46 1019.4
20260905184017 25 45 4.8 11.3 0.00 0.00 0.00 46 1019.4
20260905183516 25 45 6.4 14.5 0.00 0.00 0.00 46 1019.2
20260905183017 25 23 8.0 16.1 0.00 0.00 0.00 46 1019.2
20260905182517 25 23 8.0 17.7 0.00 0.00 0.00 46 1019.1
20260905182018 25 23 6.4 14.5 0.00 0.00 0.00 46 1019.0
20260905181516 25 23 9.7 19.3 0.00 0.00 0.00 45 1019.0
20260905181016 25 23 9.7 19.3 0.00 0.00 0.00 45 1018.8
20260905180516 25 23 8.0 17.7 0.00 0.00 0.00 45 1018.8
20260905180017 25 45 6.4 14.5 0.00 0.00 0.00 44 1018.7
20260905175517 25 45 4.8 11.3 0.00 0.00 0.00 44 1018.5
20260905175017 25 45 4.8 9.7 0.00 0.00 0.00 44 1018.5
20260905174516 25 23 4.8 11.3 0.00 0.00 0.00 43 1018.5
20260905174017 26 23 8.0 16.1 0.00 0.00 0.00 43 1018.5
20260905173516 26 23 8.0 17.7 0.00 0.00 0.00 42 1018.4
20260905173016 26 23 8.0 17.7 0.00 0.00 0.00 42 1018.3
20260905172516 26 45 9.7 20.9 0.00 0.00 0.00 42 1018.2
20260905172016 26 23 9.7 20.9 0.00 0.00 0.00 41 1018.1
20260905171516 26 23 11.3 22.5 0.00 0.00 0.00 40 1018.1
20260905171017 27 23 11.3 20.9 0.00 0.00 0.00 40 1018.0
20260905170516 27 23 12.9 22.5 0.00 0.00 0.00 39 1017.8
20260905170016 27 45 11.3 27.4 0.00 0.00 0.00 39 1017.7
20260905165517 27 45 11.3 22.5 0.00 0.00 0.00 38 1017.6
20260905165017 28 45 12.9 25.7 0.00 0.00 0.00 38 1017.5
20260905164516 28 23 11.3 20.9 0.00 0.00 0.00 38 1017.5
20260905164017 28 23 12.9 24.1 0.00 0.00 0.00 37 1017.5
20260905163516 28 23 11.3 20.9 0.00 0.00 0.00 37 1017.5
20260905163016 28 23 14.5 27.4 0.00 0.00 0.00 37 1017.5
20260905162516 28 23 17.7 33.8 0.00 0.00 0.00 37 1017.4
20260905162017 28 23 12.9 24.1 0.00 0.00 0.00 37 1017.5
20260905161516 28 23 14.5 25.7 0.00 0.00 0.00 37 1017.4
20260905161016 29 23 12.9 25.7 0.00 0.00 0.00 36 1017.3
20260905160516 30 23 14.5 32.2 0.00 0.00 0.00 36 1017.3
20260905160016 30 23 16.1 35.4 0.00 0.00 0.00 36 1017.2
20260905155516 30 23 16.1 30.6 0.00 0.00 0.00 35 1017.2
20260905155016 30 23 17.7 32.2 0.00 0.00 0.00 35 1017.1
20260905154517 30 23 16.1 27.4 0.00 0.00 0.00 34 1017.0
20260905154016 31 23 14.5 29.0 0.00 0.00 0.00 34 1017.0
20260905153516 31 23 14.5 27.4 0.00 0.00 0.00 34 1016.9
20260905153016 31 23 16.1 33.8 0.00 0.00 0.00 34 1016.8
20260905152514 31 23 17.7 33.8 0.00 0.00 0.00 34 1016.8